createdAt,value
2022-12-15T00:02:30.931Z,99974.00
2022-12-15T00:05:16.682Z,99975.84
2022-12-15T00:08:02.989Z,99967.16
2022-12-15T00:10:48.690Z,99979.25
2022-12-15T00:13:34.985Z,99968.94
2022-12-15T00:16:24.161Z,99976.63
2022-12-15T00:19:09.785Z,99980.00
2022-12-15T00:21:55.728Z,99980.00
2022-12-15T00:24:41.931Z,99981.75
2022-12-15T00:27:27.220Z,99980.91
2022-12-15T00:30:12.778Z,99993.78
2022-12-15T00:32:59.333Z,99998.09
2022-12-15T00:35:44.608Z,99991.28
2022-12-15T00:38:32.282Z,99989.59
2022-12-15T00:41:00.609Z,99988.69
2022-12-15T00:43:29.386Z,99986.69
2022-12-15T00:46:15.276Z,99987.59
2022-12-15T00:48:44.930Z,99999.81
2022-12-15T00:51:12.738Z,99992.22
2022-12-15T00:53:58.193Z,99992.16
2022-12-15T00:56:43.668Z,99997.38
2022-12-15T00:59:29.201Z,100005.13
2022-12-15T01:02:15.328Z,99999.97
2022-12-15T01:05:02.203Z,100006.84
2022-12-15T01:07:49.781Z,99999.97
2022-12-15T01:10:36.168Z,99997.38
2022-12-15T01:13:22.123Z,99997.22
2022-12-15T01:16:07.932Z,99998.81
2022-12-15T01:18:56.790Z,100000.66
2022-12-15T01:21:26.799Z,100004.88
2022-12-15T01:23:54.676Z,100010.03
2022-12-15T01:26:22.461Z,100006.53
2022-12-15T01:28:50.057Z,100003.72
2022-12-15T01:31:17.688Z,100016.41
2022-12-15T01:33:45.298Z,100013.78
2022-12-15T01:36:14.292Z,100013.72
2022-12-15T01:38:43.888Z,100011.09
2022-12-15T01:41:12.457Z,100010.03
2022-12-15T01:43:41.896Z,100013.38
2022-12-15T01:46:12.066Z,100015.81
2022-12-15T01:48:43.979Z,100020.03
2022-12-15T01:51:22.860Z,100019.94
2022-12-15T01:53:56.751Z,100023.34
2022-12-15T01:56:36.835Z,100025.88
2022-12-15T01:59:09.752Z,100030.97
2022-12-15T02:01:37.657Z,100037.63
2022-12-15T02:04:07.735Z,100039.34
2022-12-15T02:06:38.002Z,100041.09
2022-12-15T02:09:09.163Z,100041.06
2022-12-15T02:11:50.673Z,100038.25
2022-12-15T02:14:26.660Z,100041.72
2022-12-15T02:17:14.756Z,100040.88
2022-12-15T02:20:23.239Z,100039.25
2022-12-15T02:23:09.743Z,100049.59
2022-12-15T02:25:56.743Z,100045.31
2022-12-15T02:28:38.320Z,100049.47
2022-12-15T02:31:27.772Z,100052.16
2022-12-15T02:34:01.604Z,100055.66
2022-12-15T02:36:36.744Z,100064.25
2022-12-15T02:39:06.261Z,100060.81
2022-12-15T02:41:37.627Z,100065.16
2022-12-15T02:44:12.232Z,100065.16
2022-12-15T02:46:56.772Z,100067.72
2022-12-15T02:49:38.204Z,100075.38
2022-12-15T02:52:18.015Z,100077.16
2022-12-15T02:55:05.914Z,100064.09
2022-12-15T02:57:40.322Z,100071.13
2022-12-15T03:00:10.981Z,100061.72
2022-12-15T03:02:43.755Z,100057.44
2022-12-15T03:05:16.757Z,100064.34
2022-12-15T03:07:45.738Z,100065.25
2022-12-15T03:10:19.757Z,100068.66
2022-12-15T03:12:47.859Z,100067.69
2022-12-15T03:15:15.577Z,100075.59
2022-12-15T03:17:45.833Z,100076.47
2022-12-15T03:20:14.739Z,100068.75
2022-12-15T03:22:42.319Z,100076.41
2022-12-15T03:25:10.757Z,100075.63
2022-12-15T03:28:03.755Z,100090.38
2022-12-15T03:30:35.832Z,100094.72
2022-12-15T03:33:05.842Z,100097.25
2022-12-15T03:35:34.209Z,100105.03
2022-12-15T03:38:03.751Z,100107.63
2022-12-15T03:40:31.395Z,100103.38
2022-12-15T03:42:59.288Z,100102.53
2022-12-15T03:45:29.519Z,100101.69
2022-12-15T03:47:58.828Z,100094.81
2022-12-15T03:50:31.338Z,100100.78
2022-12-15T03:53:00.718Z,100107.69
2022-12-15T03:55:29.126Z,100106.00
2022-12-15T03:57:57.050Z,100108.59
2022-12-15T04:00:25.879Z,100113.75
2022-12-15T04:02:54.066Z,100113.75
2022-12-15T04:05:25.630Z,100119.75
2022-12-15T04:07:57.740Z,100117.13
2022-12-15T04:10:51.744Z,100122.28
2022-12-15T04:13:21.464Z,100120.59
2022-12-15T04:15:49.746Z,100118.91
2022-12-15T04:18:18.284Z,100127.41
2022-12-15T04:20:50.191Z,100123.13
2022-12-15T04:23:20.861Z,100125.50
2022-12-15T04:26:09.528Z,100121.22
2022-12-15T04:28:54.926Z,100113.38
2022-12-15T04:31:47.374Z,100116.75
2022-12-15T04:34:36.311Z,100120.06
2022-12-15T04:37:21.688Z,100118.16
2022-12-15T04:40:10.414Z,100120.59
2022-12-15T04:43:00.438Z,100123.13
2022-12-15T04:45:45.547Z,100115.31
2022-12-15T04:48:31.562Z,100116.00
2022-12-15T04:51:17.670Z,100114.19
2022-12-15T04:54:03.737Z,100115.78
2022-12-15T04:56:50.980Z,100113.09
2022-12-15T04:59:36.684Z,100113.91
2022-12-15T05:02:23.791Z,100119.09
2022-12-15T05:05:09.729Z,100125.09
2022-12-15T05:07:55.239Z,100127.69
2022-12-15T05:11:05.735Z,100130.22
2022-12-15T05:13:55.941Z,100134.47
2022-12-15T05:16:42.771Z,100137.94
2022-12-15T05:19:32.758Z,100142.25
2022-12-15T05:22:20.793Z,100145.72
2022-12-15T05:25:05.883Z,100151.81
2022-12-15T05:27:52.465Z,100145.84
2022-12-15T05:30:38.962Z,100146.69
2022-12-15T05:33:06.941Z,100146.63
2022-12-15T05:35:35.329Z,100149.34
2022-12-15T05:38:03.136Z,100155.50
2022-12-15T05:40:31.748Z,100151.34
2022-12-15T05:43:00.202Z,100150.44
2022-12-15T05:45:29.425Z,100160.72
2022-12-15T05:47:57.752Z,100153.53
2022-12-15T05:50:25.398Z,100167.53
2022-12-15T05:52:53.049Z,100172.16
2022-12-15T05:55:20.932Z,100177.41
2022-12-15T05:57:52.562Z,100180.09
2022-12-15T06:00:20.746Z,100175.09
2022-12-15T06:02:50.771Z,100172.59
2022-12-15T06:05:18.719Z,100175.13
2022-12-15T06:07:46.387Z,100173.47
2022-12-15T06:10:14.006Z,100175.19
2022-12-15T06:12:43.753Z,100174.25
2022-12-15T06:15:13.167Z,100174.19
2022-12-15T06:17:40.829Z,100184.47
2022-12-15T06:20:14.735Z,100182.69
2022-12-15T06:22:49.605Z,100183.50
2022-12-15T06:25:18.748Z,100182.63
2022-12-15T06:27:46.836Z,100191.16
2022-12-15T06:30:18.170Z,100190.28
2022-12-15T06:32:49.894Z,100186.84
2022-12-15T06:35:19.608Z,100194.50
2022-12-15T06:37:47.271Z,100196.28
2022-12-15T06:40:39.441Z,100197.13
2022-12-15T06:43:07.745Z,100193.81
2022-12-15T06:45:37.198Z,100192.06
2022-12-15T06:48:30.750Z,100207.47
2022-12-15T06:51:14.956Z,100201.56
2022-12-15T06:53:48.673Z,100197.44
2022-12-15T06:56:44.646Z,100191.53
2022-12-15T06:59:13.547Z,100196.69
2022-12-15T07:01:41.580Z,100195.81
2022-12-15T07:04:12.185Z,100203.50
2022-12-15T07:06:42.237Z,100199.19
2022-12-15T07:09:16.744Z,100205.19
2022-12-15T07:11:45.102Z,100206.03
2022-12-15T07:14:13.427Z,100203.41
2022-12-15T07:16:41.419Z,100206.97
2022-12-15T07:19:12.681Z,100208.78
2022-12-15T07:21:42.743Z,100211.41
2022-12-15T07:24:12.795Z,100222.63
2022-12-15T07:26:40.664Z,100229.59
2022-12-15T07:29:09.452Z,100228.75
2022-12-15T07:31:37.884Z,100236.56
2022-12-15T07:34:05.549Z,100233.16
2022-12-15T07:36:33.163Z,100238.34
2022-12-15T07:39:04.767Z,100235.75
2022-12-15T07:41:32.620Z,100237.53
2022-12-15T07:44:00.306Z,100251.34
2022-12-15T07:46:29.080Z,100253.13
2022-12-15T07:48:56.851Z,100258.44
2022-12-15T07:51:24.631Z,100261.03
2022-12-15T07:53:54.712Z,100251.63
2022-12-15T07:56:24.728Z,100259.38
2022-12-15T07:58:54.069Z,100261.97
2022-12-15T08:01:21.762Z,100267.13
2022-12-15T08:03:50.054Z,100267.97
2022-12-15T08:06:18.846Z,100275.69
2022-12-15T08:08:50.802Z,100271.34
2022-12-15T08:11:21.104Z,100278.97
2022-12-15T08:14:12.024Z,100270.31
2022-12-15T08:16:39.841Z,100272.84
2022-12-15T08:19:11.594Z,100266.75
2022-12-15T08:21:40.088Z,100274.50
2022-12-15T08:24:08.597Z,100270.94
2022-12-15T08:26:38.128Z,100276.91
2022-12-15T08:31:57.305Z,100266.28
2022-12-15T08:34:25.072Z,100269.41
2022-12-15T08:36:52.701Z,100264.06
2022-12-15T08:39:20.403Z,100263.88
2022-12-15T08:41:48.541Z,100265.41
2022-12-15T08:44:17.701Z,100274.75
2022-12-15T08:46:45.595Z,100274.66
2022-12-15T08:49:17.911Z,100280.53
2022-12-15T08:51:50.030Z,100289.84
2022-12-15T08:54:19.741Z,100302.63
2022-12-15T08:56:47.359Z,100303.38
2022-12-15T08:59:15.311Z,100305.00
2022-12-15T09:01:45.108Z,100308.38
2022-12-15T09:04:15.843Z,100309.97
2022-12-15T09:06:44.023Z,100315.84
2022-12-15T09:09:16.250Z,100316.50
2022-12-15T09:11:45.407Z,100318.81
2022-12-15T09:14:13.239Z,100323.66
2022-12-15T09:16:42.008Z,100314.84
2022-12-15T09:19:11.524Z,100315.53
2022-12-15T09:21:40.723Z,100305.88
2022-12-15T09:24:08.664Z,100307.44
2022-12-15T09:29:27.874Z,100302.81
2022-12-15T09:31:55.453Z,100305.25
2022-12-15T09:34:24.807Z,100304.19
2022-12-15T09:36:52.526Z,100309.06
2022-12-15T09:39:21.885Z,100320.00
2022-12-15T09:41:54.709Z,100330.91
2022-12-15T09:44:48.759Z,100336.63
2022-12-15T09:47:24.833Z,100328.47
2022-12-15T09:49:57.597Z,100347.94
2022-12-15T09:52:28.947Z,100350.19
2022-12-15T09:54:58.164Z,100352.50
2022-12-15T09:57:38.294Z,100345.38
2022-12-15T10:00:14.837Z,100347.56
2022-12-15T10:03:18.456Z,100354.22
2022-12-15T10:08:50.996Z,100347.69
2022-12-15T10:11:44.691Z,100353.53
2022-12-15T10:14:27.585Z,100365.31
2022-12-15T10:17:06.268Z,100355.53
2022-12-15T10:19:40.713Z,100355.34
2022-12-15T10:22:14.963Z,100353.44
2022-12-15T10:27:51.785Z,100355.50
2022-12-15T10:30:23.153Z,100344.91
2022-12-15T10:32:58.252Z,100343.75
2022-12-15T10:35:29.539Z,100346.97
2022-12-15T10:38:06.731Z,100354.69
2022-12-15T10:40:50.415Z,100352.56
2022-12-15T10:43:26.705Z,100355.84
2022-12-15T10:46:05.989Z,100354.72
2022-12-15T10:48:33.735Z,100352.69
2022-12-15T10:51:21.287Z,100360.19
2022-12-15T10:53:53.130Z,100362.50
2022-12-15T10:56:30.649Z,100357.13
2022-12-15T10:59:03.844Z,100343.78
2022-12-15T11:01:33.896Z,100339.75
2022-12-15T11:04:02.105Z,100342.34
2022-12-15T11:06:32.267Z,100349.16
2022-12-15T11:09:10.720Z,100351.53
2022-12-15T11:12:11.857Z,100348.69
2022-12-15T11:18:06.324Z,100340.44
2022-12-15T11:20:38.380Z,100346.84
2022-12-15T11:23:12.964Z,100347.31
2022-12-15T11:25:46.012Z,100346.47
2022-12-15T11:28:19.729Z,100343.63
2022-12-15T11:30:54.842Z,100341.78
2022-12-15T11:33:23.393Z,100340.63
2022-12-15T11:36:07.724Z,100340.56
2022-12-15T11:38:43.562Z,100337.69
2022-12-15T11:41:24.037Z,100334.16
2022-12-15T11:44:09.725Z,100334.94
2022-12-15T11:46:49.390Z,100329.47
2022-12-15T11:50:02.634Z,100335.41
2022-12-15T11:53:08.641Z,100328.34
2022-12-15T11:55:48.366Z,100325.47
2022-12-15T11:58:53.724Z,100322.75
2022-12-15T12:01:51.648Z,100320.72
2022-12-15T12:04:25.897Z,100324.16
2022-12-15T12:07:08.146Z,100322.28
2022-12-15T12:09:37.825Z,100319.66
2022-12-15T12:12:16.192Z,100320.44
2022-12-15T12:14:57.131Z,100327.22
2022-12-15T12:17:40.011Z,100319.19
2022-12-15T12:20:16.304Z,100316.34
2022-12-15T12:22:50.648Z,100320.66
2022-12-15T12:25:21.723Z,100308.41
2022-12-15T12:27:56.948Z,100314.31
2022-12-15T12:30:28.592Z,100316.72
2022-12-15T12:33:04.903Z,100320.97
2022-12-15T12:35:39.689Z,100316.44
2022-12-15T12:38:10.498Z,100308.50
2022-12-15T12:40:49.831Z,100306.66
2022-12-15T12:43:32.963Z,100317.72
2022-12-15T12:46:07.921Z,100307.13
2022-12-15T12:48:39.843Z,100296.56
2022-12-15T12:51:24.212Z,100286.00
2022-12-15T12:53:52.784Z,100290.97
2022-12-15T12:56:33.275Z,100282.22
2022-12-15T12:59:01.716Z,100290.84
2022-12-15T13:01:34.930Z,100291.59
2022-12-15T13:04:08.873Z,100294.84
2022-12-15T13:07:04.617Z,100293.84
2022-12-15T13:09:40.597Z,100294.41
2022-12-15T13:12:53.492Z,100290.03
2022-12-15T13:15:39.718Z,100273.06
2022-12-15T13:18:22.552Z,100274.00
2022-12-15T13:20:54.481Z,100273.16
2022-12-15T13:23:42.094Z,100279.13
2022-12-15T13:26:15.014Z,100276.31
2022-12-15T13:28:50.628Z,100261.66
2022-12-15T13:31:27.472Z,100257.28
2022-12-15T13:34:04.262Z,100258.97
2022-12-15T13:37:00.249Z,100259.03
2022-12-15T13:39:59.858Z,100253.88
2022-12-15T13:42:41.477Z,100245.06
2022-12-15T13:45:48.643Z,100248.59
2022-12-15T13:48:38.067Z,100251.13
2022-12-15T13:51:31.245Z,100255.25
2022-12-15T13:54:15.301Z,100262.34
2022-12-15T13:57:04.768Z,100263.34
2022-12-15T13:59:42.075Z,100259.81
2022-12-15T14:02:25.702Z,100262.50
2022-12-15T14:05:15.949Z,100266.78
2022-12-15T14:07:54.187Z,100264.94
2022-12-15T14:10:26.360Z,100259.81
2022-12-15T14:15:53.453Z,100257.41
2022-12-15T14:18:34.207Z,100252.34
2022-12-15T14:21:07.871Z,100249.78
2022-12-15T14:23:52.487Z,100255.09
2022-12-15T14:26:32.199Z,100255.31
2022-12-15T14:29:02.688Z,100245.72
2022-12-15T14:31:31.156Z,100238.72
2022-12-15T14:34:03.460Z,100237.34
2022-12-15T14:36:33.534Z,100232.50
2022-12-15T14:39:04.090Z,100235.25
2022-12-15T14:41:33.192Z,100238.88
2022-12-15T14:44:31.692Z,100233.81
2022-12-15T14:46:51.836Z,100243.16
2022-12-15T14:49:23.694Z,100235.84
2022-12-15T14:51:54.855Z,100232.69
2022-12-15T14:54:31.085Z,100228.59
2022-12-15T14:57:01.733Z,100225.31
2022-12-15T14:59:32.551Z,100222.81
2022-12-15T15:02:03.717Z,100223.84
2022-12-15T15:03:09.090Z,100351.03
2022-12-15T15:04:32.377Z,100222.28
2022-12-15T15:07:01.807Z,100214.59
2022-12-15T15:09:34.735Z,100214.75
2022-12-15T15:12:03.829Z,100211.41
2022-12-15T15:14:32.811Z,100215.94
2022-12-15T15:17:02.186Z,100207.38
2022-12-15T15:19:33.555Z,100216.22
2022-12-15T15:22:05.221Z,100213.75
2022-12-15T15:24:36.204Z,100206.78
2022-12-15T15:27:24.459Z,100213.91
2022-12-15T15:29:52.804Z,100217.19
2022-12-15T15:32:21.766Z,100221.78
2022-12-15T15:34:51.166Z,100219.41
2022-12-15T15:37:19.979Z,100221.28
2022-12-15T15:39:50.398Z,100222.28
2022-12-15T15:42:18.502Z,100220.00
2022-12-15T15:44:45.954Z,100223.72
2022-12-15T15:47:20.047Z,100232.59
2022-12-15T15:49:47.895Z,100243.13
2022-12-15T15:52:15.369Z,100251.09
2022-12-15T15:54:43.566Z,100250.44
2022-12-15T15:57:15.252Z,100249.72
2022-12-15T15:59:44.052Z,100247.28
2022-12-15T16:02:13.348Z,100245.81
2022-12-15T16:04:42.166Z,100247.25
2022-12-15T16:07:35.236Z,100255.44
2022-12-15T16:10:04.372Z,100248.59
2022-12-15T16:12:37.704Z,100252.53
2022-12-15T16:15:10.113Z,100247.53
2022-12-15T16:17:40.716Z,100248.59
2022-12-15T16:20:09.846Z,100259.09
2022-12-15T16:22:38.713Z,100257.53
2022-12-15T16:25:08.708Z,100271.56
2022-12-15T16:27:37.512Z,100265.63
2022-12-15T16:30:07.170Z,100261.41
2022-12-15T16:32:36.724Z,100271.09
2022-12-15T16:35:04.898Z,100272.06
2022-12-15T16:37:37.817Z,100267.78
2022-12-15T16:40:14.668Z,100275.00
2022-12-15T16:42:43.798Z,100273.50
2022-12-15T16:45:15.299Z,100276.53
2022-12-15T16:47:42.799Z,100278.78
2022-12-15T16:50:12.969Z,100264.50
2022-12-15T16:52:40.867Z,100268.91
2022-12-15T16:55:11.098Z,100272.69
2022-12-15T16:57:38.687Z,100280.09
2022-12-15T17:00:15.319Z,100278.69
2022-12-15T17:02:43.712Z,100280.66
2022-12-15T17:05:11.748Z,100285.94
2022-12-15T17:07:40.459Z,100286.91
2022-12-15T17:10:08.686Z,100288.66
2022-12-15T17:12:37.869Z,100287.00
2022-12-15T17:15:10.113Z,100290.59
2022-12-15T17:17:39.383Z,100280.34
2022-12-15T17:23:00.705Z,100293.59
2022-12-15T17:26:09.229Z,100296.28
2022-12-15T17:28:24.475Z,100293.75
2022-12-15T17:30:52.526Z,100293.94
2022-12-15T17:33:22.756Z,100292.34
2022-12-15T17:35:51.530Z,100296.84
2022-12-15T17:38:20.335Z,100298.78
2022-12-15T17:40:49.165Z,100298.94
2022-12-15T17:43:17.971Z,100310.34
2022-12-15T17:45:50.438Z,100309.69
2022-12-15T17:48:18.207Z,100308.94
2022-12-15T17:50:49.963Z,100315.97
2022-12-15T17:53:18.596Z,100319.41
2022-12-15T17:55:46.137Z,100316.91
2022-12-15T17:58:17.541Z,100318.84
2022-12-15T18:00:49.175Z,100332.53
2022-12-15T18:03:17.371Z,100331.19
2022-12-15T18:05:48.109Z,100332.47
2022-12-15T18:08:16.912Z,100326.44
2022-12-15T18:10:45.012Z,100345.56
2022-12-15T18:13:16.243Z,100349.97
2022-12-15T18:15:43.995Z,100349.19
2022-12-15T18:18:11.989Z,100346.63
2022-12-15T18:20:44.805Z,100354.41
2022-12-15T18:23:15.714Z,100351.72
2022-12-15T18:25:43.929Z,100356.00
2022-12-15T18:28:19.758Z,100355.06
2022-12-15T18:30:50.720Z,100360.03
2022-12-15T18:33:19.450Z,100357.44
2022-12-15T18:35:47.949Z,100355.81
2022-12-15T18:38:17.928Z,100358.47
2022-12-15T18:40:46.507Z,100367.03
2022-12-15T18:43:15.484Z,100358.34
2022-12-15T18:45:43.394Z,100354.03
2022-12-15T18:48:19.190Z,100348.88
2022-12-15T18:50:47.171Z,100346.34
2022-12-15T18:53:19.651Z,100344.66
2022-12-15T18:55:47.959Z,100347.31
2022-12-15T18:58:22.343Z,100343.88
2022-12-15T19:00:50.768Z,100343.81
2022-12-15T19:03:21.898Z,100342.13
2022-12-15T19:05:49.612Z,100344.91
2022-12-15T19:08:20.352Z,100348.34
2022-12-15T19:10:50.694Z,100345.06
2022-12-15T19:13:18.979Z,100345.22
2022-12-15T19:15:47.530Z,100338.34
2022-12-15T19:18:32.875Z,100327.97
2022-12-15T19:21:21.544Z,100324.59
2022-12-15T19:23:51.421Z,100319.47
2022-12-15T19:26:20.338Z,100320.41
2022-12-15T19:28:47.805Z,100314.38
2022-12-15T19:31:15.306Z,100314.47
2022-12-15T19:33:42.861Z,100317.97
2022-12-15T19:36:15.343Z,100314.56
2022-12-15T19:38:43.223Z,100321.47
2022-12-15T19:41:14.668Z,100322.38
2022-12-15T19:43:42.274Z,100323.16
2022-12-15T19:46:12.558Z,100321.78
2022-12-15T19:48:41.083Z,100322.19
2022-12-15T19:51:13.797Z,100325.72
2022-12-15T19:53:44.241Z,100330.94
2022-12-15T19:56:15.701Z,100325.78
2022-12-15T19:58:43.938Z,100323.13
2022-12-15T20:01:14.616Z,100319.72
2022-12-15T20:03:42.295Z,100317.13
2022-12-15T20:06:14.807Z,100323.16
2022-12-15T20:08:45.696Z,100318.91
2022-12-15T20:11:18.300Z,100315.56
2022-12-15T20:13:46.157Z,100311.31
2022-12-15T20:16:17.155Z,100314.75
2022-12-15T20:18:45.352Z,100315.75
2022-12-15T20:21:17.918Z,100314.13
2022-12-15T20:23:49.852Z,100311.59
2022-12-15T20:26:19.491Z,100310.81
2022-12-15T20:28:48.245Z,100312.63
2022-12-15T20:31:16.881Z,100318.75
2022-12-15T20:33:48.794Z,100313.63
2022-12-15T20:36:18.713Z,100322.34
2022-12-15T20:38:46.628Z,100330.19
2022-12-15T20:41:16.986Z,100332.00
2022-12-15T20:43:46.349Z,100332.94
2022-12-15T20:46:16.376Z,100330.44
2022-12-15T20:48:45.728Z,100333.97
2022-12-15T20:51:15.682Z,100334.94
2022-12-15T20:53:43.735Z,100334.09
2022-12-15T20:56:36.601Z,100333.34
2022-12-15T20:59:07.487Z,100333.34
2022-12-15T21:01:37.768Z,100329.97
2022-12-15T21:04:20.437Z,100342.97
2022-12-15T21:06:54.307Z,100349.09
2022-12-15T21:09:22.442Z,100345.69
2022-12-15T21:11:51.693Z,100344.91
2022-12-15T21:14:22.576Z,100339.78
2022-12-15T21:16:50.418Z,100339.03
2022-12-15T21:19:21.399Z,100341.69
2022-12-15T21:21:52.040Z,100337.41
2022-12-15T21:24:22.654Z,100342.63
2022-12-15T21:26:52.714Z,100333.19
2022-12-15T21:29:27.391Z,100338.34
2022-12-15T21:31:55.715Z,100333.38
2022-12-15T21:34:23.402Z,100346.38
2022-12-15T21:36:52.583Z,100347.34
2022-12-15T21:39:24.698Z,100356.84
2022-12-15T21:41:55.118Z,100362.06
2022-12-15T21:44:22.661Z,100359.53
2022-12-15T21:46:51.677Z,100360.38
2022-12-15T21:49:18.788Z,100368.19
2022-12-15T21:51:48.060Z,100369.97
2022-12-15T21:54:18.238Z,100373.44
2022-12-15T21:56:46.179Z,100375.22
2022-12-15T21:59:16.017Z,100372.66
2022-12-15T22:01:43.899Z,100372.69
2022-12-15T22:04:17.137Z,100373.63
2022-12-15T22:06:48.757Z,100372.81
2022-12-15T22:09:19.536Z,100371.94
2022-12-15T22:11:48.389Z,100371.19
2022-12-15T22:14:17.270Z,100376.34
2022-12-15T22:16:44.759Z,100384.97
2022-12-15T22:19:12.782Z,100379.03
2022-12-15T22:21:42.811Z,100385.09
2022-12-15T22:24:10.510Z,100377.34
2022-12-15T22:26:38.915Z,100379.97
2022-12-15T22:29:11.703Z,100384.34
2022-12-15T22:31:39.416Z,100382.69
2022-12-15T22:34:12.679Z,100375.88
2022-12-15T22:36:40.219Z,100377.66
2022-12-15T22:39:10.938Z,100383.78
2022-12-15T22:41:39.889Z,100375.22
2022-12-15T22:44:12.975Z,100391.59
2022-12-15T22:46:40.617Z,100386.44
2022-12-15T22:49:10.329Z,100388.16
2022-12-15T22:51:37.912Z,100380.47
2022-12-15T22:54:15.801Z,100385.59
2022-12-15T22:56:43.280Z,100383.00
2022-12-15T22:59:16.192Z,100381.41
2022-12-15T23:01:45.104Z,100379.72
2022-12-15T23:04:12.797Z,100380.59
2022-12-15T23:06:42.200Z,100381.41
2022-12-15T23:09:11.033Z,100385.84
2022-12-15T23:11:37.532Z,100381.63
2022-12-15T23:14:05.658Z,100384.25
2022-12-15T23:16:34.396Z,100379.97
2022-12-15T23:19:03.361Z,100380.84
2022-12-15T23:21:31.061Z,100389.53
2022-12-15T23:23:58.579Z,100391.25
2022-12-15T23:26:27.439Z,100393.84
2022-12-15T23:28:55.945Z,100397.41
2022-12-15T23:31:24.125Z,100400.91
2022-12-15T23:33:52.676Z,100404.44
2022-12-15T23:36:20.376Z,100407.84
2022-12-15T23:38:47.835Z,100403.56
2022-12-15T23:41:17.719Z,100406.28
2022-12-15T23:43:46.524Z,100402.91
2022-12-15T23:46:14.968Z,100405.50
2022-12-15T23:48:43.465Z,100407.22
2022-12-15T23:51:12.307Z,100407.22
2022-12-15T23:53:40.224Z,100408.09
2022-12-15T23:56:10.811Z,100419.31
2022-12-15T23:58:39.268Z,100411.56
